Time;durP1;ratioP1;P1;durP2;ratioP2;P2;SDS_P1;SDS_P2;PMS_P1;PMS_P2;Temp;Humidity;BMP_temperature;BMP_pressure;BME280_temperature;BME280_humidity;BME280_pressure;Samples;Min_cycle;Max_cycle;Signal;HPM_P1;HPM_P2
2023/12/27 00:02:01;;;;;;;17.42;10.18;;;;;;;;;;4971136;28;92407;-69
2023/12/27 00:04:27;;;;;;;18.08;10.70;;;;;;;;;;4973348;28;93610;-69
2023/12/27 00:06:54;;;;;;;18.50;11.13;;;;;;;;;;4968403;28;93381;-68
2023/12/27 00:09:21;;;;;;;17.95;10.55;;;;;;;;;;4968413;28;92486;-68
2023/12/27 00:11:47;;;;;;;17.83;11.18;;;;;;;;;;4966800;28;96203;-68
2023/12/27 00:14:14;;;;;;;16.73;9.77;;;;;;;;;;4973757;28;93404;-69
2023/12/27 00:16:40;;;;;;;18.17;10.15;;;;;;;;;;4966923;28;92704;-68
2023/12/27 00:19:06;;;;;;;18.25;11.40;;;;;;;;;;4970665;28;95275;-68
2023/12/27 00:21:33;;;;;;;16.85;9.73;;;;;;;;;;4972416;28;92523;-69
2023/12/27 00:23:59;;;;;;;13.02;8.52;;;;;;;;;;4968120;28;94352;-69
2023/12/27 00:26:26;;;;;;;15.77;8.73;;;;;;;;;;4968570;28;94511;-69
2023/12/27 00:28:52;;;;;;;16.48;9.80;;;;;;;;;;4971931;28;92527;-69
2023/12/27 00:31:18;;;;;;;10.98;8.80;;;;;;;;;;4973014;28;93257;-69
2023/12/27 00:33:45;;;;;;;11.85;9.10;;;;;;;;;;4971688;28;93414;-69
2023/12/27 00:36:12;;;;;;;14.70;8.38;;;;;;;;;;4969232;28;91828;-69
2023/12/27 00:38:39;;;;;;;12.65;8.68;;;;;;;;;;4967757;28;92924;-68
2023/12/27 00:41:06;;;;;;;14.95;8.93;;;;;;;;;;4972272;28;93376;-68
2023/12/27 00:43:33;;;;;;;14.55;8.85;;;;;;;;;;4965312;28;94986;-68
2023/12/27 00:45:59;;;;;;;18.38;8.85;;;;;;;;;;4971593;28;93485;-68
2023/12/27 00:48:25;;;;;;;16.92;8.95;;;;;;;;;;4973491;28;92509;-68
2023/12/27 00:50:52;;;;;;;13.18;8.00;;;;;;;;;;4971538;28;93430;-68
2023/12/27 00:53:18;;;;;;;13.75;8.75;;;;;;;;;;4963536;28;95392;-68
2023/12/27 00:55:45;;;;;;;18.02;8.85;;;;;;;;;;4970692;28;92409;-69
2023/12/27 00:58:11;;;;;;;10.45;7.88;;;;;;;;;;4969087;28;93297;-68
2023/12/27 01:00:38;;;;;;;13.50;8.93;;;;;;;;;;4925946;28;1184488;-68
2023/12/27 01:03:04;;;;;;;13.02;8.23;;;;;;;;;;4972523;28;93843;-68
2023/12/27 01:05:31;;;;;;;12.32;8.43;;;;;;;;;;4970025;28;94774;-69
2023/12/27 01:07:57;;;;;;;13.13;7.70;;;;;;;;;;4972501;28;94854;-68
2023/12/27 01:10:24;;;;;;;11.30;7.53;;;;;;;;;;4971520;28;96703;-68
2023/12/27 01:12:50;;;;;;;10.90;6.57;;;;;;;;;;4974791;28;95267;-68
2023/12/27 01:15:17;;;;;;;11.32;7.20;;;;;;;;;;4974302;28;92505;-68
2023/12/27 01:17:43;;;;;;;10.80;6.97;;;;;;;;;;4972943;28;93250;-68
2023/12/27 01:20:10;;;;;;;9.73;7.38;;;;;;;;;;4972586;28;94665;-68
2023/12/27 01:22:36;;;;;;;16.73;7.95;;;;;;;;;;4972065;28;92632;-68
2023/12/27 01:25:03;;;;;;;16.88;7.72;;;;;;;;;;4973093;28;93188;-68
2023/12/27 01:27:29;;;;;;;13.77;7.93;;;;;;;;;;4967660;28;92666;-68
2023/12/27 01:29:55;;;;;;;12.20;7.53;;;;;;;;;;4974733;28;94668;-68
2023/12/27 01:32:22;;;;;;;13.32;7.90;;;;;;;;;;4967228;28;96856;-67
2023/12/27 01:34:48;;;;;;;11.40;7.40;;;;;;;;;;4969849;28;92560;-68
2023/12/27 01:37:15;;;;;;;15.80;7.85;;;;;;;;;;4985402;28;94718;-68
2023/12/27 01:39:41;;;;;;;9.80;7.05;;;;;;;;;;4971215;28;93303;-69
2023/12/27 01:42:07;;;;;;;11.15;6.65;;;;;;;;;;4973680;28;93018;-68
2023/12/27 01:44:34;;;;;;;10.63;6.55;;;;;;;;;;4976183;28;93062;-68
2023/12/27 01:47:00;;;;;;;12.30;7.18;;;;;;;;;;4987674;28;93044;-67
2023/12/27 01:49:27;;;;;;;14.93;6.95;;;;;;;;;;4974940;28;94224;-68
2023/12/27 01:51:53;;;;;;;9.23;7.07;;;;;;;;;;4972473;28;93353;-67
2023/12/27 01:54:20;;;;;;;12.90;7.05;;;;;;;;;;4972991;28;92435;-68
2023/12/27 01:56:47;;;;;;;10.45;6.22;;;;;;;;;;4960438;28;95127;-68
2023/12/27 01:59:13;;;;;;;12.25;6.68;;;;;;;;;;4969686;28;93693;-68
2023/12/27 02:01:40;;;;;;;8.75;6.47;;;;;;;;;;4968448;28;92601;-68
2023/12/27 02:04:06;;;;;;;11.00;6.97;;;;;;;;;;4970493;28;94155;-67
2023/12/27 02:06:33;;;;;;;13.55;6.40;;;;;;;;;;4970956;28;94717;-67
2023/12/27 02:08:59;;;;;;;9.07;5.93;;;;;;;;;;4970259;28;94002;-67
2023/12/27 02:11:26;;;;;;;15.25;6.50;;;;;;;;;;4987783;28;93397;-67
2023/12/27 02:13:52;;;;;;;12.52;6.05;;;;;;;;;;4969172;28;94178;-67
2023/12/27 02:16:21;;;;;;;12.27;6.15;;;;;;;;;;4971656;28;92845;-68
2023/12/27 02:18:48;;;;;;;12.60;6.10;;;;;;;;;;4969390;28;93697;-68
2023/12/27 02:21:14;;;;;;;10.30;6.07;;;;;;;;;;4965933;28;94881;-69
2023/12/27 02:23:42;;;;;;;9.43;6.22;;;;;;;;;;4971114;28;98932;-69
2023/12/27 02:26:09;;;;;;;8.77;5.85;;;;;;;;;;4969010;28;93404;-68
2023/12/27 02:28:35;;;;;;;13.30;6.75;;;;;;;;;;4972626;28;92438;-68
2023/12/27 02:31:02;;;;;;;10.80;5.53;;;;;;;;;;4971284;28;96316;-68
2023/12/27 02:33:28;;;;;;;11.07;5.35;;;;;;;;;;4965774;28;92374;-68
2023/12/27 02:35:55;;;;;;;14.25;6.15;;;;;;;;;;4968601;28;93359;-68
2023/12/27 02:38:21;;;;;;;8.70;5.32;;;;;;;;;;4973022;28;93370;-68
2023/12/27 02:40:48;;;;;;;16.88;6.85;;;;;;;;;;4969083;28;92538;-68
2023/12/27 02:43:14;;;;;;;17.13;6.45;;;;;;;;;;4967646;28;94326;-68
2023/12/27 02:45:40;;;;;;;13.35;5.70;;;;;;;;;;4968051;28;95825;-68
2023/12/27 02:48:07;;;;;;;13.18;5.82;;;;;;;;;;4972070;28;92444;-68
2023/12/27 02:50:33;;;;;;;20.55;6.22;;;;;;;;;;4974958;28;93179;-68
2023/12/27 02:53:00;;;;;;;20.67;5.43;;;;;;;;;;4970055;28;92733;-69
2023/12/27 02:55:27;;;;;;;16.17;6.72;;;;;;;;;;4969065;28;93104;-68
2023/12/27 02:57:54;;;;;;;16.35;6.32;;;;;;;;;;4969563;28;94382;-68
2023/12/27 03:00:21;;;;;;;16.17;6.32;;;;;;;;;;4966931;28;92461;-68
2023/12/27 03:02:47;;;;;;;13.10;6.70;;;;;;;;;;4969781;28;94776;-68
2023/12/27 03:05:13;;;;;;;24.50;7.15;;;;;;;;;;4970727;28;93485;-68
2023/12/27 03:07:40;;;;;;;19.80;7.18;;;;;;;;;;4969463;28;92500;-69
2023/12/27 03:10:07;;;;;;;32.38;7.80;;;;;;;;;;4967678;28;94896;-68
2023/12/27 03:12:34;;;;;;;20.90;6.88;;;;;;;;;;4966976;28;93427;-68
2023/12/27 03:15:00;;;;;;;26.23;8.05;;;;;;;;;;4973361;28;93298;-68
2023/12/27 03:17:27;;;;;;;24.90;7.78;;;;;;;;;;4964670;28;93878;-68
2023/12/27 03:19:53;;;;;;;22.23;7.25;;;;;;;;;;4972332;28;92457;-68
2023/12/27 03:22:19;;;;;;;22.00;8.68;;;;;;;;;;4964794;28;94233;-68
2023/12/27 03:24:46;;;;;;;19.00;7.85;;;;;;;;;;4969299;28;93782;-68
2023/12/27 03:27:12;;;;;;;13.20;7.28;;;;;;;;;;4969397;28;91762;-68
2023/12/27 03:29:38;;;;;;;16.27;7.88;;;;;;;;;;4962334;28;92607;-67
2023/12/27 03:32:05;;;;;;;11.27;6.82;;;;;;;;;;4967097;28;93661;-67
2023/12/27 03:34:31;;;;;;;11.65;7.28;;;;;;;;;;4967041;28;94823;-67
2023/12/27 03:36:58;;;;;;;14.85;6.93;;;;;;;;;;4961871;28;94519;-67
2023/12/27 03:39:24;;;;;;;11.00;7.13;;;;;;;;;;4967978;28;92538;-68
2023/12/27 03:41:51;;;;;;;16.10;6.93;;;;;;;;;;4961114;28;93309;-67
2023/12/27 03:44:17;;;;;;;15.60;7.25;;;;;;;;;;4965380;28;93406;-67
2023/12/27 03:46:43;;;;;;;12.65;6.80;;;;;;;;;;4972712;28;92909;-67
2023/12/27 03:49:10;;;;;;;12.52;7.28;;;;;;;;;;4961771;28;93709;-67
2023/12/27 03:51:36;;;;;;;10.65;7.13;;;;;;;;;;4962598;28;93087;-67
2023/12/27 03:54:03;;;;;;;13.48;7.35;;;;;;;;;;4977912;28;92489;-67
2023/12/27 03:56:29;;;;;;;13.85;7.05;;;;;;;;;;4961925;28;94319;-67
2023/12/27 03:58:55;;;;;;;13.63;6.57;;;;;;;;;;4966109;28;94835;-67
2023/12/27 04:01:22;;;;;;;13.35;6.75;;;;;;;;;;4970276;28;96521;-67
2023/12/27 04:03:48;;;;;;;16.13;6.88;;;;;;;;;;4967365;28;93624;-67
2023/12/27 04:06:18;;;;;;;17.05;6.82;;;;;;;;;;4971067;28;93387;-67
2023/12/27 04:08:45;;;;;;;16.45;6.78;;;;;;;;;;4967580;28;93295;-67
2023/12/27 04:11:11;;;;;;;12.75;7.10;;;;;;;;;;4967826;28;93433;-67
2023/12/27 04:13:38;;;;;;;13.05;7.28;;;;;;;;;;4967407;28;92412;-67
2023/12/27 04:16:04;;;;;;;19.13;7.75;;;;;;;;;;4972028;28;93145;-67
2023/12/27 04:18:31;;;;;;;14.77;7.47;;;;;;;;;;4968702;28;92620;-67
2023/12/27 04:20:57;;;;;;;21.25;8.73;;;;;;;;;;4967389;28;93794;-67
2023/12/27 04:23:23;;;;;;;17.48;7.65;;;;;;;;;;4967856;28;95743;-67
2023/12/27 04:25:50;;;;;;;17.10;8.02;;;;;;;;;;4966565;28;92424;-67
2023/12/27 04:28:16;;;;;;;17.10;7.40;;;;;;;;;;4971073;28;93205;-67
2023/12/27 04:30:43;;;;;;;16.75;7.78;;;;;;;;;;4968151;28;94248;-67
2023/12/27 04:33:09;;;;;;;26.08;8.23;;;;;;;;;;4966413;28;93386;-67
2023/12/27 04:35:36;;;;;;;18.13;7.65;;;;;;;;;;4970888;28;93160;-67
2023/12/27 04:38:02;;;;;;;22.45;8.43;;;;;;;;;;4972932;28;94432;-67
2023/12/27 04:40:29;;;;;;;25.35;9.07;;;;;;;;;;4975003;28;93175;-67
2023/12/27 04:42:55;;;;;;;28.00;8.48;;;;;;;;;;4970008;28;93763;-67
2023/12/27 04:45:22;;;;;;;20.00;8.38;;;;;;;;;;4973120;28;93755;-67
2023/12/27 04:47:48;;;;;;;25.17;8.40;;;;;;;;;;4970683;28;95199;-67
2023/12/27 04:50:15;;;;;;;27.27;8.70;;;;;;;;;;4970198;28;92623;-67
2023/12/27 04:52:41;;;;;;;20.58;8.20;;;;;;;;;;4971100;28;92391;-67
2023/12/27 04:55:08;;;;;;;19.58;8.25;;;;;;;;;;4971875;28;93137;-67
2023/12/27 04:57:34;;;;;;;22.45;8.23;;;;;;;;;;4971643;28;93385;-67
2023/12/27 05:00:01;;;;;;;20.55;8.63;;;;;;;;;;4991002;28;93631;-67
2023/12/27 05:02:27;;;;;;;18.52;8.40;;;;;;;;;;4972506;28;93299;-67
2023/12/27 05:04:53;;;;;;;27.67;8.93;;;;;;;;;;4974488;28;92070;-67
2023/12/27 05:07:20;;;;;;;26.08;8.55;;;;;;;;;;4965288;28;93343;-67
2023/12/27 05:09:46;;;;;;;23.38;7.80;;;;;;;;;;4971613;28;93401;-67
2023/12/27 05:12:12;;;;;;;17.80;8.55;;;;;;;;;;4966024;28;94873;-67
2023/12/27 05:14:39;;;;;;;30.92;8.52;;;;;;;;;;4969442;28;95991;-67
2023/12/27 05:17:05;;;;;;;24.48;8.93;;;;;;;;;;4968733;28;93837;-67
2023/12/27 05:19:32;;;;;;;23.15;7.95;;;;;;;;;;4973480;28;92563;-67
2023/12/27 05:21:58;;;;;;;24.30;8.25;;;;;;;;;;4989216;28;93381;-67
2023/12/27 05:24:25;;;;;;;18.52;7.88;;;;;;;;;;4969945;28;92471;-67
2023/12/27 05:26:53;;;;;;;26.80;8.10;;;;;;;;;;4989134;28;96136;-67
2023/12/27 05:29:19;;;;;;;29.85;9.20;;;;;;;;;;4973475;28;92918;-67
2023/12/27 05:31:45;;;;;;;20.05;8.35;;;;;;;;;;4968168;28;92652;-67
2023/12/27 05:34:12;;;;;;;20.70;7.45;;;;;;;;;;4972445;28;93072;-67
2023/12/27 05:36:38;;;;;;;29.08;8.38;;;;;;;;;;4968262;28;96902;-67
2023/12/27 05:39:05;;;;;;;22.60;8.48;;;;;;;;;;4973287;28;92695;-68
2023/12/27 05:41:31;;;;;;;17.13;7.47;;;;;;;;;;4969141;28;93134;-67
2023/12/27 05:43:58;;;;;;;29.45;8.52;;;;;;;;;;4972534;28;94498;-67
2023/12/27 05:46:25;;;;;;;17.35;7.95;;;;;;;;;;4973356;28;93341;-68
2023/12/27 05:48:51;;;;;;;16.75;7.57;;;;;;;;;;4966401;28;93369;-68
2023/12/27 05:51:18;;;;;;;24.17;8.30;;;;;;;;;;4967194;28;92666;-67
2023/12/27 05:53:44;;;;;;;25.45;8.38;;;;;;;;;;4972425;28;93449;-67
2023/12/27 05:56:10;;;;;;;27.20;7.97;;;;;;;;;;4969993;28;94815;-68
2023/12/27 05:58:37;;;;;;;24.83;8.20;;;;;;;;;;4973257;28;92884;-67
2023/12/27 06:01:03;;;;;;;19.70;8.20;;;;;;;;;;4965081;28;95050;-68
2023/12/27 06:03:30;;;;;;;20.30;7.28;;;;;;;;;;4988379;28;93879;-68
2023/12/27 06:05:57;;;;;;;22.70;7.93;;;;;;;;;;4965654;28;93495;-67
2023/12/27 06:08:23;;;;;;;33.42;7.93;;;;;;;;;;4968969;28;93867;-67
2023/12/27 06:10:50;;;;;;;25.67;7.57;;;;;;;;;;4964522;28;92584;-67
2023/12/27 06:13:16;;;;;;;20.50;7.63;;;;;;;;;;4965573;28;93208;-67
2023/12/27 06:15:42;;;;;;;20.00;8.07;;;;;;;;;;4969279;28;93462;-67
2023/12/27 06:18:09;;;;;;;32.97;7.97;;;;;;;;;;4971738;28;91873;-67
2023/12/27 06:20:36;;;;;;;22.23;8.05;;;;;;;;;;4965681;28;92440;-67
2023/12/27 06:23:02;;;;;;;22.63;8.15;;;;;;;;;;4963978;28;95169;-67
2023/12/27 06:25:29;;;;;;;16.65;6.63;;;;;;;;;;4963166;28;94971;-67
2023/12/27 06:27:55;;;;;;;19.27;8.25;;;;;;;;;;4962443;28;93759;-67
2023/12/27 06:30:22;;;;;;;24.48;8.15;;;;;;;;;;4965560;28;92586;-67
2023/12/27 06:32:48;;;;;;;22.88;8.20;;;;;;;;;;4966246;28;93181;-67
2023/12/27 06:35:15;;;;;;;24.92;8.70;;;;;;;;;;4970963;28;93315;-68
2023/12/27 06:37:41;;;;;;;34.97;8.43;;;;;;;;;;4968393;28;92511;-67
2023/12/27 06:40:10;;;;;;;26.75;9.85;;;;;;;;;;4962428;28;92656;-67
2023/12/27 06:42:36;;;;;;;24.00;8.20;;;;;;;;;;4973671;28;93007;-67
2023/12/27 06:45:03;;;;;;;24.00;7.53;;;;;;;;;;4968948;28;92478;-67
2023/12/27 06:47:30;;;;;;;22.38;7.43;;;;;;;;;;4971607;28;93630;-67
2023/12/27 06:49:56;;;;;;;27.80;8.05;;;;;;;;;;4964845;28;95042;-67
2023/12/27 06:52:23;;;;;;;27.77;7.85;;;;;;;;;;4965820;28;96117;-67
2023/12/27 06:54:49;;;;;;;21.25;7.55;;;;;;;;;;4971811;28;93832;-67
2023/12/27 06:57:15;;;;;;;27.90;7.85;;;;;;;;;;4972780;28;92430;-67
2023/12/27 06:59:42;;;;;;;27.90;7.57;;;;;;;;;;4964846;28;93501;-68
2023/12/27 07:02:08;;;;;;;17.10;7.07;;;;;;;;;;4979684;28;93447;-68
2023/12/27 07:04:35;;;;;;;27.25;7.32;;;;;;;;;;4964711;28;92591;-68
2023/12/27 07:07:02;;;;;;;28.02;7.90;;;;;;;;;;4980359;28;92781;-68
2023/12/27 07:09:28;;;;;;;21.60;7.35;;;;;;;;;;4964383;28;93733;-72
2023/12/27 07:11:55;;;;;;;20.65;6.93;;;;;;;;;;4961762;28;93174;-68
2023/12/27 07:14:21;;;;;;;24.27;8.25;;;;;;;;;;4965706;28;96137;-69
2023/12/27 07:16:47;;;;;;;19.75;5.63;;;;;;;;;;4969181;28;92438;-68
2023/12/27 07:19:14;;;;;;;21.70;7.07;;;;;;;;;;4964868;28;93302;-68
2023/12/27 07:21:40;;;;;;;22.13;6.13;;;;;;;;;;4963104;28;93771;-68
2023/12/27 07:24:07;;;;;;;23.75;6.45;;;;;;;;;;4961403;28;92563;-68
2023/12/27 07:26:33;;;;;;;22.73;6.45;;;;;;;;;;4960952;28;93059;-67
2023/12/27 07:28:59;;;;;;;21.75;5.65;;;;;;;;;;4965160;28;93832;-68
2023/12/27 07:31:26;;;;;;;13.52;5.45;;;;;;;;;;4969698;28;91791;-68
2023/12/27 07:33:52;;;;;;;22.92;6.00;;;;;;;;;;4968597;28;95060;-68
2023/12/27 07:36:19;;;;;;;26.20;6.15;;;;;;;;;;4969101;28;92504;-68
2023/12/27 07:38:48;;;;;;;23.00;6.10;;;;;;;;;;4961407;28;95647;-68
2023/12/27 07:41:14;;;;;;;16.60;5.60;;;;;;;;;;4961338;28;93344;-68
2023/12/27 07:43:41;;;;;;;20.80;5.97;;;;;;;;;;4963339;28;92898;-68
2023/12/27 07:46:08;;;;;;;23.05;5.90;;;;;;;;;;4965405;28;93387;-68
2023/12/27 07:48:35;;;;;;;23.02;5.57;;;;;;;;;;4965468;28;93439;-68
2023/12/27 07:51:03;;;;;;;18.40;5.82;;;;;;;;;;4970428;28;92453;-68
2023/12/27 07:53:31;;;;;;;28.17;6.40;;;;;;;;;;4966619;28;93198;-68
2023/12/27 07:55:57;;;;;;;20.35;6.22;;;;;;;;;;4965495;28;91846;-68
2023/12/27 07:58:23;;;;;;;18.45;5.63;;;;;;;;;;4961982;28;92692;-67
2023/12/27 08:00:50;;;;;;;30.55;6.78;;;;;;;;;;4972260;28;94884;-67
2023/12/27 08:03:16;;;;;;;26.45;7.13;;;;;;;;;;4972965;28;94954;-68
2023/12/27 08:05:43;;;;;;;25.75;7.05;;;;;;;;;;4973392;28;95646;-67
2023/12/27 08:08:09;;;;;;;18.75;6.65;;;;;;;;;;4968475;28;93491;-68
2023/12/27 08:10:36;;;;;;;20.52;7.55;;;;;;;;;;4971942;28;92456;-68
2023/12/27 08:13:03;;;;;;;19.35;6.72;;;;;;;;;;4975635;28;93167;-69
2023/12/27 08:15:30;;;;;;;16.65;7.32;;;;;;;;;;4971648;28;92557;-69
2023/12/27 08:17:56;;;;;;;21.00;6.85;;;;;;;;;;4974521;28;93252;-68
2023/12/27 08:20:23;;;;;;;15.60;6.70;;;;;;;;;;4973676;28;92797;-69
2023/12/27 08:22:51;;;;;;;19.52;7.25;;;;;;;;;;4974420;28;93592;-68
2023/12/27 08:25:17;;;;;;;17.10;6.72;;;;;;;;;;4974349;28;93236;-67
2023/12/27 08:27:43;;;;;;;12.65;6.60;;;;;;;;;;4968219;28;97162;-68
2023/12/27 08:30:10;;;;;;;11.98;6.30;;;;;;;;;;4971803;28;92499;-68
2023/12/27 08:32:36;;;;;;;12.10;6.22;;;;;;;;;;4975160;28;93132;-69
2023/12/27 08:35:03;;;;;;;16.30;6.68;;;;;;;;;;4969099;28;93619;-68
2023/12/27 08:37:29;;;;;;;10.27;5.65;;;;;;;;;;4970510;28;92528;-68
2023/12/27 08:39:56;;;;;;;13.13;5.68;;;;;;;;;;4971402;28;95067;-68
2023/12/27 08:42:22;;;;;;;12.25;6.10;;;;;;;;;;4971333;28;92544;-68
2023/12/27 08:44:49;;;;;;;11.63;4.88;;;;;;;;;;4972172;28;93523;-68
2023/12/27 08:47:15;;;;;;;16.38;6.68;;;;;;;;;;4981244;28;92530;-69
2023/12/27 08:49:42;;;;;;;9.23;5.43;;;;;;;;;;4969874;28;92576;-69
2023/12/27 08:52:08;;;;;;;8.77;5.43;;;;;;;;;;4969406;28;95437;-68
2023/12/27 08:54:34;;;;;;;6.68;4.88;;;;;;;;;;4967275;28;94869;-69
2023/12/27 08:57:01;;;;;;;11.07;5.93;;;;;;;;;;4969739;28;92546;-69
2023/12/27 08:59:27;;;;;;;7.35;5.15;;;;;;;;;;4966962;28;93533;-68
2023/12/27 09:01:54;;;;;;;13.27;5.90;;;;;;;;;;4965207;28;92656;-68
2023/12/27 09:04:20;;;;;;;8.35;6.15;;;;;;;;;;4968105;28;93299;-68
2023/12/27 09:06:53;;;;;;;5.93;4.72;;;;;;;;;;4973026;28;93508;-68
2023/12/27 09:09:20;;;;;;;7.68;4.40;;;;;;;;;;4974614;28;91834;-68
2023/12/27 09:11:46;;;;;;;9.15;4.80;;;;;;;;;;4988781;28;92557;-68
2023/12/27 09:14:13;;;;;;;6.80;4.68;;;;;;;;;;4985383;28;93463;-68
2023/12/27 09:16:39;;;;;;;9.32;4.68;;;;;;;;;;4969228;28;94919;-67
2023/12/27 09:19:06;;;;;;;7.18;4.60;;;;;;;;;;4971107;28;95618;-68
2023/12/27 09:21:33;;;;;;;10.23;4.45;;;;;;;;;;4970134;28;92479;-67
2023/12/27 09:24:00;;;;;;;7.88;4.90;;;;;;;;;;4969691;28;96478;-68
2023/12/27 09:26:26;;;;;;;8.45;5.00;;;;;;;;;;4967968;28;94216;-68
2023/12/27 09:28:52;;;;;;;9.60;5.07;;;;;;;;;;4972522;28;94380;-66
2023/12/27 09:31:19;;;;;;;6.97;4.47;;;;;;;;;;4969195;28;93091;-67
2023/12/27 09:33:45;;;;;;;6.80;4.72;;;;;;;;;;4972467;28;92719;-68
2023/12/27 09:36:18;;;;;;;8.13;4.82;;;;;;;;;;4963458;28;92755;-68
2023/12/27 09:38:45;;;;;;;7.60;4.82;;;;;;;;;;4968071;28;93445;-67
2023/12/27 09:41:13;;;;;;;10.75;4.75;;;;;;;;;;4973115;28;95805;-67
2023/12/27 09:43:39;;;;;;;7.38;5.50;;;;;;;;;;4969923;28;95547;-67
2023/12/27 09:46:06;;;;;;;5.18;4.68;;;;;;;;;;4970548;28;93433;-67
2023/12/27 09:48:33;;;;;;;7.95;4.93;;;;;;;;;;4972254;28;92549;-68
2023/12/27 09:51:00;;;;;;;9.65;5.57;;;;;;;;;;4971296;28;92976;-68
2023/12/27 09:53:27;;;;;;;6.07;5.43;;;;;;;;;;4972513;28;94976;-67
2023/12/27 09:55:54;;;;;;;7.25;5.20;;;;;;;;;;4965875;28;92507;-68
2023/12/27 09:58:20;;;;;;;6.82;5.45;;;;;;;;;;4972170;28;92766;-68
2023/12/27 10:00:47;;;;;;;8.93;6.03;;;;;;;;;;4972335;28;93828;-68
2023/12/27 10:03:16;;;;;;;7.78;5.85;;;;;;;;;;4970420;28;92554;-68
2023/12/27 10:05:50;;;;;;;7.88;5.90;;;;;;;;;;4971218;28;96097;-68
2023/12/27 10:08:17;;;;;;;14.75;6.47;;;;;;;;;;4969265;28;92567;-68
2023/12/27 10:10:44;;;;;;;10.40;5.55;;;;;;;;;;4966955;28;93221;-68
2023/12/27 10:13:11;;;;;;;6.68;5.47;;;;;;;;;;4969418;28;93535;-67
2023/12/27 10:15:38;;;;;;;7.75;6.10;;;;;;;;;;4980475;28;92614;-68
2023/12/27 10:18:04;;;;;;;7.55;5.80;;;;;;;;;;4973130;28;92978;-69
2023/12/27 10:20:43;;;;;;;7.72;5.72;;;;;;;;;;4969662;28;92498;-69
2023/12/27 10:23:10;;;;;;;11.13;5.80;;;;;;;;;;4986736;28;91734;-70
2023/12/27 10:25:36;;;;;;;8.13;5.63;;;;;;;;;;4973716;28;92654;-68
2023/12/27 10:28:03;;;;;;;8.57;6.13;;;;;;;;;;4971290;28;92523;-69
2023/12/27 10:30:30;;;;;;;8.80;5.53;;;;;;;;;;4964556;28;94977;-69
2023/12/27 10:32:57;;;;;;;7.53;5.82;;;;;;;;;;4973257;28;94822;-68
2023/12/27 10:35:23;;;;;;;10.55;6.05;;;;;;;;;;4972035;28;92915;-68
2023/12/27 10:38:04;;;;;;;11.00;7.35;;;;;;;;;;4969199;28;93079;-68
2023/12/27 10:40:33;;;;;;;11.20;6.10;;;;;;;;;;4964977;28;93504;-69
2023/12/27 10:42:59;;;;;;;16.42;6.90;;;;;;;;;;4968088;28;92907;-69
2023/12/27 10:45:25;;;;;;;13.43;6.35;;;;;;;;;;4974992;28;93064;-69
2023/12/27 10:47:57;;;;;;;12.90;7.05;;;;;;;;;;4973575;28;91818;-69
2023/12/27 10:50:25;;;;;;;12.18;6.75;;;;;;;;;;4971134;28;92460;-69
2023/12/27 10:52:59;;;;;;;12.40;7.60;;;;;;;;;;4963292;28;93557;-68
2023/12/27 10:55:27;;;;;;;8.48;6.30;;;;;;;;;;4964916;28;94919;-68
2023/12/27 10:57:54;;;;;;;8.13;6.95;;;;;;;;;;4969577;28;95596;-68
2023/12/27 11:00:24;;;;;;;12.68;7.05;;;;;;;;;;4983423;28;93769;-68
2023/12/27 11:02:51;;;;;;;9.63;6.57;;;;;;;;;;4972251;28;92747;-67
2023/12/27 11:05:22;;;;;;;11.02;6.43;;;;;;;;;;4965405;28;93444;-68
2023/12/27 11:07:49;;;;;;;9.90;6.32;;;;;;;;;;4968266;28;93619;-68
2023/12/27 11:10:16;;;;;;;9.82;6.85;;;;;;;;;;4968845;28;94343;-68
2023/12/27 11:12:46;;;;;;;25.20;15.55;;;;;;;;;;4964644;28;92888;-69
2023/12/27 11:15:13;;;;;;;16.70;8.32;;;;;;;;;;4971241;28;93004;-68
2023/12/27 11:17:40;;;;;;;10.65;8.80;;;;;;;;;;4969158;28;93668;-69
2023/12/27 11:20:08;;;;;;;11.73;7.55;;;;;;;;;;4968459;28;98595;-69
2023/12/27 11:22:35;;;;;;;8.23;6.05;;;;;;;;;;4969002;28;92576;-69
2023/12/27 11:25:03;;;;;;;8.63;5.68;;;;;;;;;;4970497;28;93524;-69
2023/12/27 11:27:29;;;;;;;8.43;6.32;;;;;;;;;;4968934;28;94008;-69
2023/12/27 11:29:57;;;;;;;14.05;6.20;;;;;;;;;;4970106;28;92516;-68
2023/12/27 11:32:27;;;;;;;12.57;6.60;;;;;;;;;;4966862;28;93998;-71
2023/12/27 11:34:55;;;;;;;13.98;7.25;;;;;;;;;;4975163;28;92552;-67
2023/12/27 11:37:24;;;;;;;9.07;5.88;;;;;;;;;;4983561;28;93216;-68
2023/12/27 11:39:51;;;;;;;10.02;5.40;;;;;;;;;;4970103;28;93435;-68
2023/12/27 11:42:18;;;;;;;8.90;5.60;;;;;;;;;;4972433;28;92789;-69
2023/12/27 11:44:48;;;;;;;11.25;5.75;;;;;;;;;;4970093;28;94993;-68
2023/12/27 11:47:15;;;;;;;7.75;5.20;;;;;;;;;;4972195;28;94441;-67
2023/12/27 11:49:42;;;;;;;11.93;5.60;;;;;;;;;;4976418;28;92526;-68
2023/12/27 11:52:10;;;;;;;8.68;4.95;;;;;;;;;;4970163;28;94084;-67
2023/12/27 11:54:37;;;;;;;6.25;4.15;;;;;;;;;;4972235;28;92634;-67
2023/12/27 11:57:04;;;;;;;8.07;4.88;;;;;;;;;;4966839;28;93170;-67
2023/12/27 11:59:30;;;;;;;7.47;4.60;;;;;;;;;;4974059;28;92536;-68
2023/12/27 12:01:58;;;;;;;10.02;4.82;;;;;;;;;;4976101;28;91741;-69
2023/12/27 12:04:45;;;;;;;11.65;4.47;;;;;;;;;;4971092;28;92743;-68
2023/12/27 12:07:15;;;;;;;12.88;4.28;;;;;;;;;;4982840;28;93902;-69
2023/12/27 12:09:44;;;;;;;8.38;4.80;;;;;;;;;;4982578;28;95200;-66
2023/12/27 12:12:17;;;;;;;6.45;4.30;;;;;;;;;;4972661;28;95709;-67
2023/12/27 12:14:44;;;;;;;8.75;4.80;;;;;;;;;;4968731;28;92454;-67
2023/12/27 12:17:12;;;;;;;8.95;4.05;;;;;;;;;;4970950;28;93055;-68
2023/12/27 12:19:39;;;;;;;12.00;4.95;;;;;;;;;;4969752;28;93396;-67
2023/12/27 12:22:05;;;;;;;11.00;4.93;;;;;;;;;;4969040;28;92430;-67
2023/12/27 12:24:34;;;;;;;8.57;4.60;;;;;;;;;;4969421;28;96510;-68
2023/12/27 12:27:02;;;;;;;8.25;4.30;;;;;;;;;;4971761;28;93033;-68
2023/12/27 12:29:28;;;;;;;9.32;4.20;;;;;;;;;;4970119;28;92360;-68
2023/12/27 12:31:55;;;;;;;6.63;3.97;;;;;;;;;;4974044;28;93193;-68
2023/12/27 12:34:25;;;;;;;12.82;4.03;;;;;;;;;;4968768;28;95744;-68
2023/12/27 12:36:52;;;;;;;4.78;3.47;;;;;;;;;;4970610;28;95566;-68
2023/12/27 12:39:19;;;;;;;8.73;4.28;;;;;;;;;;4964147;28;94834;-70
2023/12/27 12:41:46;;;;;;;8.40;4.00;;;;;;;;;;4975022;28;92523;-70
2023/12/27 12:44:12;;;;;;;12.55;4.10;;;;;;;;;;4966945;28;93143;-67
2023/12/27 12:46:39;;;;;;;11.55;4.38;;;;;;;;;;4965059;28;93302;-67
2023/12/27 12:49:06;;;;;;;9.68;3.72;;;;;;;;;;4970661;28;92542;-67
2023/12/27 12:51:33;;;;;;;12.32;4.25;;;;;;;;;;4974705;28;93472;-66
2023/12/27 12:54:00;;;;;;;14.57;4.80;;;;;;;;;;4971371;28;93275;-66
2023/12/27 12:56:27;;;;;;;10.40;4.10;;;;;;;;;;4969195;28;92485;-66
2023/12/27 12:58:53;;;;;;;11.98;4.18;;;;;;;;;;4968871;28;94979;-66
2023/12/27 13:01:20;;;;;;;7.68;3.50;;;;;;;;;;4969791;28;92501;-67
2023/12/27 13:03:48;;;;;;;10.55;3.88;;;;;;;;;;4969354;28;93223;-67
2023/12/27 13:06:16;;;;;;;10.80;4.25;;;;;;;;;;4967624;28;93434;-68
2023/12/27 13:08:43;;;;;;;10.05;3.75;;;;;;;;;;4968037;28;93084;-68
2023/12/27 13:11:10;;;;;;;13.88;4.57;;;;;;;;;;4972542;28;93265;-68
2023/12/27 13:13:37;;;;;;;12.15;5.00;;;;;;;;;;4969842;28;93461;-67
2023/12/27 13:16:04;;;;;;;13.38;5.10;;;;;;;;;;4966047;28;91715;-68
2023/12/27 13:18:30;;;;;;;10.43;4.80;;;;;;;;;;4972593;28;93968;-68
2023/12/27 13:20:57;;;;;;;14.40;4.93;;;;;;;;;;4970676;28;92690;-67
2023/12/27 13:23:23;;;;;;;8.13;4.85;;;;;;;;;;4983797;28;95015;-67
2023/12/27 13:25:50;;;;;;;12.90;5.38;;;;;;;;;;4970631;28;93453;-68
2023/12/27 13:28:24;;;;;;;14.32;5.55;;;;;;;;;;4970172;28;92532;-68
2023/12/27 13:30:52;;;;;;;9.07;4.72;;;;;;;;;;4967671;28;92884;-68
2023/12/27 13:33:21;;;;;;;12.20;4.55;;;;;;;;;;4968610;28;92619;-67
2023/12/27 13:35:48;;;;;;;16.08;4.93;;;;;;;;;;4982286;28;92485;-67
2023/12/27 13:38:14;;;;;;;11.32;4.55;;;;;;;;;;4966656;28;93138;-68
2023/12/27 13:40:41;;;;;;;15.18;4.40;;;;;;;;;;4972775;28;93203;-68
2023/12/27 13:43:11;;;;;;;16.08;5.00;;;;;;;;;;4970045;28;93548;-68
2023/12/27 13:45:38;;;;;;;15.80;5.72;;;;;;;;;;4966268;28;93442;-68
2023/12/27 13:48:04;;;;;;;11.10;4.70;;;;;;;;;;4969034;28;94847;-68
2023/12/27 13:50:31;;;;;;;15.40;5.30;;;;;;;;;;4963880;28;95856;-68
2023/12/27 13:52:57;;;;;;;19.45;4.47;;;;;;;;;;4970674;28;94533;-68
2023/12/27 13:55:24;;;;;;;14.93;5.63;;;;;;;;;;4966106;28;92500;-68
2023/12/27 13:57:51;;;;;;;11.52;4.03;;;;;;;;;;4960579;28;93037;-68
2023/12/27 14:00:18;;;;;;;15.30;5.03;;;;;;;;;;4971981;28;93437;-68
2023/12/27 14:02:46;;;;;;;12.13;4.68;;;;;;;;;;4971823;28;92529;-69
2023/12/27 14:05:13;;;;;;;15.35;4.80;;;;;;;;;;4973723;28;94011;-68
2023/12/27 14:07:39;;;;;;;14.13;4.25;;;;;;;;;;4969819;28;92489;-68
2023/12/27 14:10:06;;;;;;;14.60;5.10;;;;;;;;;;4965692;28;96388;-68
2023/12/27 14:12:32;;;;;;;17.67;4.68;;;;;;;;;;4966946;28;96229;-68
2023/12/27 14:15:00;;;;;;;18.50;4.95;;;;;;;;;;4971938;28;92537;-68
2023/12/27 14:17:30;;;;;;;10.43;4.75;;;;;;;;;;4971853;28;93240;-69
2023/12/27 14:19:56;;;;;;;16.95;6.93;;;;;;;;;;4971675;28;93532;-68
2023/12/27 14:22:23;;;;;;;13.60;4.70;;;;;;;;;;4973051;28;92533;-68
2023/12/27 14:24:49;;;;;;;15.95;5.03;;;;;;;;;;4972031;28;93837;-69
2023/12/27 14:27:16;;;;;;;14.82;6.55;;;;;;;;;;4970725;28;92600;-68
2023/12/27 14:29:42;;;;;;;14.88;6.93;;;;;;;;;;4965576;28;92956;-68
2023/12/27 14:32:09;;;;;;;15.60;4.53;;;;;;;;;;4971580;28;93449;-68